sensor_id;sensor_type;location;lat;lon;timestamp;P1;durP1;ratioP1;P2;durP2;ratioP2
27632;SDS011;15046;50.930;13.334;2023-04-25T00:01:25;9.00;;;4.80;;
27632;SDS011;15046;50.930;13.334;2023-04-25T00:03:51;9.20;;;4.70;;
27632;SDS011;15046;50.930;13.334;2023-04-25T00:06:17;10.32;;;4.70;;
27632;SDS011;15046;50.930;13.334;2023-04-25T00:08:43;8.13;;;4.55;;
27632;SDS011;15046;50.930;13.334;2023-04-25T00:11:09;9.30;;;5.10;;
27632;SDS011;15046;50.930;13.334;2023-04-25T00:13:35;11.43;;;5.43;;
27632;SDS011;15046;50.930;13.334;2023-04-25T00:16:01;10.40;;;5.38;;
27632;SDS011;15046;50.930;13.334;2023-04-25T00:18:27;9.52;;;4.78;;
27632;SDS011;15046;50.930;13.334;2023-04-25T00:20:54;9.02;;;5.05;;
27632;SDS011;15046;50.930;13.334;2023-04-25T00:23:20;7.60;;;4.38;;
27632;SDS011;15046;50.930;13.334;2023-04-25T00:25:47;8.90;;;5.00;;
27632;SDS011;15046;50.930;13.334;2023-04-25T00:28:14;9.80;;;5.47;;
27632;SDS011;15046;50.930;13.334;2023-04-25T00:30:40;10.60;;;5.45;;
27632;SDS011;15046;50.930;13.334;2023-04-25T00:33:07;9.30;;;5.47;;
27632;SDS011;15046;50.930;13.334;2023-04-25T00:35:33;7.78;;;4.50;;
27632;SDS011;15046;50.930;13.334;2023-04-25T00:37:59;9.68;;;5.20;;
27632;SDS011;15046;50.930;13.334;2023-04-25T00:40:25;9.50;;;5.60;;
27632;SDS011;15046;50.930;13.334;2023-04-25T00:42:52;9.52;;;5.10;;
27632;SDS011;15046;50.930;13.334;2023-04-25T00:45:18;11.45;;;5.53;;
27632;SDS011;15046;50.930;13.334;2023-04-25T00:47:44;9.50;;;4.80;;
27632;SDS011;15046;50.930;13.334;2023-04-25T00:50:10;10.35;;;5.10;;
27632;SDS011;15046;50.930;13.334;2023-04-25T00:52:43;10.48;;;5.63;;
27632;SDS011;15046;50.930;13.334;2023-04-25T00:55:10;10.02;;;4.95;;
27632;SDS011;15046;50.930;13.334;2023-04-25T00:57:37;8.05;;;4.80;;
27632;SDS011;15046;50.930;13.334;2023-04-25T01:00:04;11.85;;;5.50;;
27632;SDS011;15046;50.930;13.334;2023-04-25T01:02:32;13.68;;;5.40;;
27632;SDS011;15046;50.930;13.334;2023-04-25T01:05:00;8.07;;;4.93;;
27632;SDS011;15046;50.930;13.334;2023-04-25T01:07:26;8.52;;;5.28;;
27632;SDS011;15046;50.930;13.334;2023-04-25T01:09:52;7.35;;;4.97;;
27632;SDS011;15046;50.930;13.334;2023-04-25T01:12:18;9.50;;;5.00;;
27632;SDS011;15046;50.930;13.334;2023-04-25T01:14:44;9.30;;;5.10;;
27632;SDS011;15046;50.930;13.334;2023-04-25T01:17:10;13.32;;;5.20;;
27632;SDS011;15046;50.930;13.334;2023-04-25T01:19:36;9.48;;;5.32;;
27632;SDS011;15046;50.930;13.334;2023-04-25T01:22:02;9.00;;;5.03;;
27632;SDS011;15046;50.930;13.334;2023-04-25T01:24:29;10.00;;;5.55;;
27632;SDS011;15046;50.930;13.334;2023-04-25T01:26:58;9.27;;;5.60;;
27632;SDS011;15046;50.930;13.334;2023-04-25T01:29:25;9.07;;;5.45;;
27632;SDS011;15046;50.930;13.334;2023-04-25T01:31:52;11.45;;;5.85;;
27632;SDS011;15046;50.930;13.334;2023-04-25T01:34:18;12.98;;;6.57;;
27632;SDS011;15046;50.930;13.334;2023-04-25T01:36:44;12.20;;;6.10;;
27632;SDS011;15046;50.930;13.334;2023-04-25T01:39:12;9.88;;;5.93;;
27632;SDS011;15046;50.930;13.334;2023-04-25T01:41:38;9.93;;;5.47;;
27632;SDS011;15046;50.930;13.334;2023-04-25T01:44:04;11.45;;;5.88;;
27632;SDS011;15046;50.930;13.334;2023-04-25T01:46:30;10.90;;;5.97;;
27632;SDS011;15046;50.930;13.334;2023-04-25T01:48:56;14.27;;;6.63;;
27632;SDS011;15046;50.930;13.334;2023-04-25T01:51:22;11.75;;;5.55;;
27632;SDS011;15046;50.930;13.334;2023-04-25T01:53:48;10.23;;;5.80;;
27632;SDS011;15046;50.930;13.334;2023-04-25T01:56:14;15.20;;;7.07;;
27632;SDS011;15046;50.930;13.334;2023-04-25T01:58:40;13.02;;;5.18;;
27632;SDS011;15046;50.930;13.334;2023-04-25T02:01:05;9.55;;;6.28;;
27632;SDS011;15046;50.930;13.334;2023-04-25T02:03:31;12.50;;;6.43;;
27632;SDS011;15046;50.930;13.334;2023-04-25T02:05:58;10.55;;;5.70;;
27632;SDS011;15046;50.930;13.334;2023-04-25T02:08:24;12.25;;;6.85;;
27632;SDS011;15046;50.930;13.334;2023-04-25T02:10:51;10.90;;;6.00;;
27632;SDS011;15046;50.930;13.334;2023-04-25T02:13:16;13.30;;;6.40;;
27632;SDS011;15046;50.930;13.334;2023-04-25T02:15:42;13.88;;;6.80;;
27632;SDS011;15046;50.930;13.334;2023-04-25T02:18:08;13.75;;;6.53;;
27632;SDS011;15046;50.930;13.334;2023-04-25T02:20:35;10.40;;;6.40;;
27632;SDS011;15046;50.930;13.334;2023-04-25T02:23:01;11.55;;;6.70;;
27632;SDS011;15046;50.930;13.334;2023-04-25T02:25:27;12.25;;;6.78;;
27632;SDS011;15046;50.930;13.334;2023-04-25T02:27:53;10.38;;;6.30;;
27632;SDS011;15046;50.930;13.334;2023-04-25T02:30:19;11.95;;;6.97;;
27632;SDS011;15046;50.930;13.334;2023-04-25T02:32:45;8.23;;;5.65;;
27632;SDS011;15046;50.930;13.334;2023-04-25T02:35:11;12.23;;;6.90;;
27632;SDS011;15046;50.930;13.334;2023-04-25T02:37:37;13.32;;;6.05;;
27632;SDS011;15046;50.930;13.334;2023-04-25T02:40:04;13.30;;;7.38;;
27632;SDS011;15046;50.930;13.334;2023-04-25T02:42:31;9.23;;;5.70;;
27632;SDS011;15046;50.930;13.334;2023-04-25T02:44:57;11.50;;;6.95;;
27632;SDS011;15046;50.930;13.334;2023-04-25T02:47:23;11.68;;;6.80;;
27632;SDS011;15046;50.930;13.334;2023-04-25T02:49:49;13.05;;;6.18;;
27632;SDS011;15046;50.930;13.334;2023-04-25T02:52:15;10.88;;;5.93;;
27632;SDS011;15046;50.930;13.334;2023-04-25T02:54:41;12.07;;;6.22;;
27632;SDS011;15046;50.930;13.334;2023-04-25T02:57:07;12.88;;;6.45;;
27632;SDS011;15046;50.930;13.334;2023-04-25T02:59:33;11.73;;;6.38;;
27632;SDS011;15046;50.930;13.334;2023-04-25T03:01:59;12.00;;;6.82;;
27632;SDS011;15046;50.930;13.334;2023-04-25T03:04:25;12.27;;;6.20;;
27632;SDS011;15046;50.930;13.334;2023-04-25T03:06:51;12.68;;;6.47;;
27632;SDS011;15046;50.930;13.334;2023-04-25T03:09:16;11.98;;;5.82;;
27632;SDS011;15046;50.930;13.334;2023-04-25T03:11:43;12.20;;;6.47;;
27632;SDS011;15046;50.930;13.334;2023-04-25T03:14:09;12.43;;;6.80;;
27632;SDS011;15046;50.930;13.334;2023-04-25T03:16:35;13.02;;;7.03;;
27632;SDS011;15046;50.930;13.334;2023-04-25T03:19:02;16.77;;;7.30;;
27632;SDS011;15046;50.930;13.334;2023-04-25T03:21:28;15.90;;;6.80;;
27632;SDS011;15046;50.930;13.334;2023-04-25T03:23:56;13.18;;;6.68;;
27632;SDS011;15046;50.930;13.334;2023-04-25T03:26:21;11.10;;;6.65;;
27632;SDS011;15046;50.930;13.334;2023-04-25T03:28:47;12.10;;;6.25;;
27632;SDS011;15046;50.930;13.334;2023-04-25T03:31:13;12.07;;;6.97;;
27632;SDS011;15046;50.930;13.334;2023-04-25T03:33:39;10.05;;;5.30;;
27632;SDS011;15046;50.930;13.334;2023-04-25T03:36:05;10.73;;;6.35;;
27632;SDS011;15046;50.930;13.334;2023-04-25T03:38:31;11.27;;;6.35;;
27632;SDS011;15046;50.930;13.334;2023-04-25T03:40:57;13.05;;;5.50;;
27632;SDS011;15046;50.930;13.334;2023-04-25T03:43:22;11.90;;;5.82;;
27632;SDS011;15046;50.930;13.334;2023-04-25T03:45:48;9.95;;;5.68;;
27632;SDS011;15046;50.930;13.334;2023-04-25T03:48:14;11.13;;;6.40;;
27632;SDS011;15046;50.930;13.334;2023-04-25T03:50:40;11.23;;;6.82;;
27632;SDS011;15046;50.930;13.334;2023-04-25T03:53:06;11.20;;;5.75;;
27632;SDS011;15046;50.930;13.334;2023-04-25T03:55:31;14.23;;;6.75;;
27632;SDS011;15046;50.930;13.334;2023-04-25T03:57:57;12.18;;;6.00;;
27632;SDS011;15046;50.930;13.334;2023-04-25T04:00:24;12.85;;;6.35;;
27632;SDS011;15046;50.930;13.334;2023-04-25T04:02:50;11.45;;;6.07;;
27632;SDS011;15046;50.930;13.334;2023-04-25T04:05:16;11.73;;;5.47;;
27632;SDS011;15046;50.930;13.334;2023-04-25T04:07:42;16.45;;;6.60;;
27632;SDS011;15046;50.930;13.334;2023-04-25T04:10:10;10.82;;;5.32;;
27632;SDS011;15046;50.930;13.334;2023-04-25T04:12:37;13.47;;;6.80;;
27632;SDS011;15046;50.930;13.334;2023-04-25T04:15:03;10.68;;;5.30;;
27632;SDS011;15046;50.930;13.334;2023-04-25T04:17:31;11.50;;;5.55;;
27632;SDS011;15046;50.930;13.334;2023-04-25T04:19:57;11.65;;;5.50;;
27632;SDS011;15046;50.930;13.334;2023-04-25T04:22:23;10.98;;;5.25;;
27632;SDS011;15046;50.930;13.334;2023-04-25T04:24:49;12.13;;;5.68;;
27632;SDS011;15046;50.930;13.334;2023-04-25T04:27:17;10.10;;;5.43;;
27632;SDS011;15046;50.930;13.334;2023-04-25T04:29:43;10.13;;;5.95;;
27632;SDS011;15046;50.930;13.334;2023-04-25T04:32:09;13.68;;;5.88;;
27632;SDS011;15046;50.930;13.334;2023-04-25T04:34:34;11.10;;;5.20;;
27632;SDS011;15046;50.930;13.334;2023-04-25T04:37:00;13.07;;;6.30;;
27632;SDS011;15046;50.930;13.334;2023-04-25T04:39:26;8.50;;;5.70;;
27632;SDS011;15046;50.930;13.334;2023-04-25T04:41:52;9.30;;;5.57;;
27632;SDS011;15046;50.930;13.334;2023-04-25T04:44:18;12.63;;;5.20;;
27632;SDS011;15046;50.930;13.334;2023-04-25T04:46:44;8.57;;;5.40;;
27632;SDS011;15046;50.930;13.334;2023-04-25T04:49:11;10.10;;;5.78;;
27632;SDS011;15046;50.930;13.334;2023-04-25T04:51:38;12.18;;;6.13;;
27632;SDS011;15046;50.930;13.334;2023-04-25T04:54:05;11.90;;;5.95;;
27632;SDS011;15046;50.930;13.334;2023-04-25T04:56:31;9.82;;;5.10;;
27632;SDS011;15046;50.930;13.334;2023-04-25T04:58:58;11.85;;;7.00;;
27632;SDS011;15046;50.930;13.334;2023-04-25T05:01:24;12.02;;;5.97;;
27632;SDS011;15046;50.930;13.334;2023-04-25T05:03:51;11.95;;;6.00;;
27632;SDS011;15046;50.930;13.334;2023-04-25T05:06:20;11.85;;;6.43;;
27632;SDS011;15046;50.930;13.334;2023-04-25T05:08:46;11.48;;;6.88;;
27632;SDS011;15046;50.930;13.334;2023-04-25T05:11:12;12.40;;;6.03;;
27632;SDS011;15046;50.930;13.334;2023-04-25T05:13:37;11.52;;;5.93;;
27632;SDS011;15046;50.930;13.334;2023-04-25T05:16:03;10.40;;;5.68;;
27632;SDS011;15046;50.930;13.334;2023-04-25T05:18:29;12.05;;;6.03;;
27632;SDS011;15046;50.930;13.334;2023-04-25T05:20:55;9.38;;;5.85;;
27632;SDS011;15046;50.930;13.334;2023-04-25T05:23:21;11.07;;;5.97;;
27632;SDS011;15046;50.930;13.334;2023-04-25T05:25:46;16.52;;;7.05;;
27632;SDS011;15046;50.930;13.334;2023-04-25T05:28:12;11.93;;;5.03;;
27632;SDS011;15046;50.930;13.334;2023-04-25T05:30:38;13.35;;;5.38;;
27632;SDS011;15046;50.930;13.334;2023-04-25T05:33:04;10.55;;;5.78;;
27632;SDS011;15046;50.930;13.334;2023-04-25T05:35:30;12.57;;;6.03;;
27632;SDS011;15046;50.930;13.334;2023-04-25T05:37:56;10.18;;;5.75;;
27632;SDS011;15046;50.930;13.334;2023-04-25T05:40:22;12.20;;;6.07;;
27632;SDS011;15046;50.930;13.334;2023-04-25T05:42:47;9.32;;;6.03;;
27632;SDS011;15046;50.930;13.334;2023-04-25T05:45:13;11.85;;;6.43;;
27632;SDS011;15046;50.930;13.334;2023-04-25T05:47:39;12.10;;;6.03;;
27632;SDS011;15046;50.930;13.334;2023-04-25T05:50:05;12.32;;;6.30;;
27632;SDS011;15046;50.930;13.334;2023-04-25T05:52:32;11.30;;;6.10;;
27632;SDS011;15046;50.930;13.334;2023-04-25T05:54:57;12.75;;;5.63;;
27632;SDS011;15046;50.930;13.334;2023-04-25T05:57:24;10.40;;;5.07;;
27632;SDS011;15046;50.930;13.334;2023-04-25T05:59:51;9.85;;;5.50;;
27632;SDS011;15046;50.930;13.334;2023-04-25T06:02:17;9.68;;;5.50;;
27632;SDS011;15046;50.930;13.334;2023-04-25T06:04:44;17.88;;;6.07;;
27632;SDS011;15046;50.930;13.334;2023-04-25T06:07:10;11.15;;;5.82;;
27632;SDS011;15046;50.930;13.334;2023-04-25T06:09:36;11.63;;;5.53;;
27632;SDS011;15046;50.930;13.334;2023-04-25T06:12:04;11.30;;;5.03;;
27632;SDS011;15046;50.930;13.334;2023-04-25T06:14:30;9.43;;;5.75;;
27632;SDS011;15046;50.930;13.334;2023-04-25T06:16:56;13.75;;;5.88;;
27632;SDS011;15046;50.930;13.334;2023-04-25T06:19:22;9.20;;;4.70;;
27632;SDS011;15046;50.930;13.334;2023-04-25T06:21:48;9.70;;;4.75;;
27632;SDS011;15046;50.930;13.334;2023-04-25T06:24:13;9.07;;;4.93;;
27632;SDS011;15046;50.930;13.334;2023-04-25T06:26:39;8.45;;;4.95;;
27632;SDS011;15046;50.930;13.334;2023-04-25T06:29:05;10.27;;;5.20;;
27632;SDS011;15046;50.930;13.334;2023-04-25T06:31:31;10.00;;;4.45;;
27632;SDS011;15046;50.930;13.334;2023-04-25T06:33:59;8.50;;;4.78;;
27632;SDS011;15046;50.930;13.334;2023-04-25T06:36:25;9.35;;;5.05;;
27632;SDS011;15046;50.930;13.334;2023-04-25T06:38:52;9.40;;;5.38;;
27632;SDS011;15046;50.930;13.334;2023-04-25T06:41:19;9.32;;;5.15;;
27632;SDS011;15046;50.930;13.334;2023-04-25T06:43:45;9.95;;;5.25;;
27632;SDS011;15046;50.930;13.334;2023-04-25T06:46:11;9.40;;;5.55;;
27632;SDS011;15046;50.930;13.334;2023-04-25T06:48:37;11.02;;;5.93;;
27632;SDS011;15046;50.930;13.334;2023-04-25T06:51:03;8.63;;;5.15;;
27632;SDS011;15046;50.930;13.334;2023-04-25T06:53:29;12.85;;;6.20;;
27632;SDS011;15046;50.930;13.334;2023-04-25T06:55:55;10.80;;;5.82;;
27632;SDS011;15046;50.930;13.334;2023-04-25T06:58:20;8.55;;;5.35;;
27632;SDS011;15046;50.930;13.334;2023-04-25T07:00:46;11.85;;;5.93;;
27632;SDS011;15046;50.930;13.334;2023-04-25T07:03:12;16.88;;;6.10;;
27632;SDS011;15046;50.930;13.334;2023-04-25T07:05:38;12.75;;;5.72;;
27632;SDS011;15046;50.930;13.334;2023-04-25T07:08:04;12.00;;;6.78;;
27632;SDS011;15046;50.930;13.334;2023-04-25T07:10:29;10.32;;;6.30;;
27632;SDS011;15046;50.930;13.334;2023-04-25T07:12:55;11.13;;;6.20;;
27632;SDS011;15046;50.930;13.334;2023-04-25T07:15:21;11.45;;;6.07;;
27632;SDS011;15046;50.930;13.334;2023-04-25T07:17:47;9.30;;;5.10;;
27632;SDS011;15046;50.930;13.334;2023-04-25T07:20:13;11.73;;;5.53;;
27632;SDS011;15046;50.930;13.334;2023-04-25T07:22:38;9.15;;;4.43;;
27632;SDS011;15046;50.930;13.334;2023-04-25T07:25:04;12.95;;;4.88;;
27632;SDS011;15046;50.930;13.334;2023-04-25T07:27:31;11.32;;;4.25;;
27632;SDS011;15046;50.930;13.334;2023-04-25T07:29:57;8.35;;;4.40;;
27632;SDS011;15046;50.930;13.334;2023-04-25T07:32:23;8.57;;;4.20;;
27632;SDS011;15046;50.930;13.334;2023-04-25T07:34:48;9.45;;;4.80;;
27632;SDS011;15046;50.930;13.334;2023-04-25T07:37:14;7.07;;;2.70;;
27632;SDS011;15046;50.930;13.334;2023-04-25T07:39:40;5.13;;;3.13;;
27632;SDS011;15046;50.930;13.334;2023-04-25T07:42:06;6.85;;;3.50;;
27632;SDS011;15046;50.930;13.334;2023-04-25T07:44:36;5.63;;;3.00;;
27632;SDS011;15046;50.930;13.334;2023-04-25T07:47:06;4.25;;;2.42;;
27632;SDS011;15046;50.930;13.334;2023-04-25T07:49:33;4.60;;;2.35;;
27632;SDS011;15046;50.930;13.334;2023-04-25T07:52:03;8.13;;;2.55;;
27632;SDS011;15046;50.930;13.334;2023-04-25T07:54:31;9.20;;;3.15;;
27632;SDS011;15046;50.930;13.334;2023-04-25T07:56:57;4.97;;;2.80;;
27632;SDS011;15046;50.930;13.334;2023-04-25T07:59:23;8.32;;;4.28;;
27632;SDS011;15046;50.930;13.334;2023-04-25T08:01:49;8.73;;;3.20;;
27632;SDS011;15046;50.930;13.334;2023-04-25T08:04:15;7.20;;;3.03;;
27632;SDS011;15046;50.930;13.334;2023-04-25T08:06:42;6.53;;;3.63;;
27632;SDS011;15046;50.930;13.334;2023-04-25T08:09:08;7.80;;;3.20;;
27632;SDS011;15046;50.930;13.334;2023-04-25T08:11:34;5.88;;;3.17;;
27632;SDS011;15046;50.930;13.334;2023-04-25T08:14:00;10.82;;;3.72;;
27632;SDS011;15046;50.930;13.334;2023-04-25T08:16:26;6.63;;;3.42;;
27632;SDS011;15046;50.930;13.334;2023-04-25T08:18:52;9.98;;;3.72;;
27632;SDS011;15046;50.930;13.334;2023-04-25T08:21:18;10.75;;;4.38;;
27632;SDS011;15046;50.930;13.334;2023-04-25T08:23:44;7.63;;;3.63;;
27632;SDS011;15046;50.930;13.334;2023-04-25T08:26:10;10.50;;;4.57;;
27632;SDS011;15046;50.930;13.334;2023-04-25T08:28:36;8.45;;;4.65;;
27632;SDS011;15046;50.930;13.334;2023-04-25T08:31:02;9.30;;;4.05;;
27632;SDS011;15046;50.930;13.334;2023-04-25T08:33:28;8.70;;;3.78;;
27632;SDS011;15046;50.930;13.334;2023-04-25T08:35:55;9.25;;;3.90;;
27632;SDS011;15046;50.930;13.334;2023-04-25T08:38:23;9.70;;;3.35;;
27632;SDS011;15046;50.930;13.334;2023-04-25T08:40:50;7.13;;;3.65;;
27632;SDS011;15046;50.930;13.334;2023-04-25T08:43:19;8.02;;;4.35;;
27632;SDS011;15046;50.930;13.334;2023-04-25T08:45:45;10.98;;;4.72;;
27632;SDS011;15046;50.930;13.334;2023-04-25T08:48:12;8.82;;;4.75;;
27632;SDS011;15046;50.930;13.334;2023-04-25T08:50:40;14.23;;;4.85;;
27632;SDS011;15046;50.930;13.334;2023-04-25T08:53:13;12.50;;;4.43;;
27632;SDS011;15046;50.930;13.334;2023-04-25T08:55:43;6.32;;;3.50;;
27632;SDS011;15046;50.930;13.334;2023-04-25T08:58:11;8.43;;;4.03;;
27632;SDS011;15046;50.930;13.334;2023-04-25T09:00:38;8.93;;;4.38;;
27632;SDS011;15046;50.930;13.334;2023-04-25T09:03:04;14.73;;;4.93;;
27632;SDS011;15046;50.930;13.334;2023-04-25T09:05:31;8.07;;;3.85;;
27632;SDS011;15046;50.930;13.334;2023-04-25T09:07:58;8.50;;;3.65;;
27632;SDS011;15046;50.930;13.334;2023-04-25T09:10:23;9.00;;;4.32;;
27632;SDS011;15046;50.930;13.334;2023-04-25T09:13:06;9.75;;;4.20;;
27632;SDS011;15046;50.930;13.334;2023-04-25T09:15:53;8.50;;;4.60;;
27632;SDS011;15046;50.930;13.334;2023-04-25T09:18:26;10.48;;;4.38;;
27632;SDS011;15046;50.930;13.334;2023-04-25T09:20:53;9.68;;;4.85;;
27632;SDS011;15046;50.930;13.334;2023-04-25T09:23:20;7.22;;;4.60;;
27632;SDS011;15046;50.930;13.334;2023-04-25T09:25:48;10.32;;;5.22;;
27632;SDS011;15046;50.930;13.334;2023-04-25T09:28:25;6.43;;;4.20;;
27632;SDS011;15046;50.930;13.334;2023-04-25T09:30:56;8.02;;;4.82;;
27632;SDS011;15046;50.930;13.334;2023-04-25T09:33:26;7.93;;;5.00;;
27632;SDS011;15046;50.930;13.334;2023-04-25T09:36:06;10.57;;;5.53;;
27632;SDS011;15046;50.930;13.334;2023-04-25T09:38:46;12.55;;;5.97;;
27632;SDS011;15046;50.930;13.334;2023-04-25T09:41:12;9.20;;;5.93;;
27632;SDS011;15046;50.930;13.334;2023-04-25T09:43:38;12.30;;;6.35;;
27632;SDS011;15046;50.930;13.334;2023-04-25T09:46:08;11.68;;;4.93;;
27632;SDS011;15046;50.930;13.334;2023-04-25T09:48:36;11.95;;;5.95;;
27632;SDS011;15046;50.930;13.334;2023-04-25T09:51:06;10.55;;;5.90;;
27632;SDS011;15046;50.930;13.334;2023-04-25T09:53:33;11.63;;;5.80;;
27632;SDS011;15046;50.930;13.334;2023-04-25T09:56:03;9.80;;;4.97;;
27632;SDS011;15046;50.930;13.334;2023-04-25T09:58:31;8.05;;;5.30;;
27632;SDS011;15046;50.930;13.334;2023-04-25T10:00:59;9.90;;;6.03;;
27632;SDS011;15046;50.930;13.334;2023-04-25T10:03:29;10.35;;;5.20;;
27632;SDS011;15046;50.930;13.334;2023-04-25T10:05:57;10.35;;;6.00;;
27632;SDS011;15046;50.930;13.334;2023-04-25T10:08:25;10.63;;;6.15;;
27632;SDS011;15046;50.930;13.334;2023-04-25T10:10:56;9.60;;;6.18;;
27632;SDS011;15046;50.930;13.334;2023-04-25T10:13:24;10.98;;;6.55;;
27632;SDS011;15046;50.930;13.334;2023-04-25T10:15:50;12.50;;;6.07;;
27632;SDS011;15046;50.930;13.334;2023-04-25T10:18:18;9.25;;;5.25;;
27632;SDS011;15046;50.930;13.334;2023-04-25T10:20:45;8.05;;;5.18;;
27632;SDS011;15046;50.930;13.334;2023-04-25T10:23:14;10.30;;;5.75;;
27632;SDS011;15046;50.930;13.334;2023-04-25T10:25:41;10.40;;;4.93;;
27632;SDS011;15046;50.930;13.334;2023-04-25T10:28:08;9.63;;;5.10;;
27632;SDS011;15046;50.930;13.334;2023-04-25T10:30:34;12.27;;;5.18;;
27632;SDS011;15046;50.930;13.334;2023-04-25T10:33:00;9.38;;;5.35;;
27632;SDS011;15046;50.930;13.334;2023-04-25T10:35:27;9.38;;;5.57;;
27632;SDS011;15046;50.930;13.334;2023-04-25T10:38:10;8.90;;;5.60;;
27632;SDS011;15046;50.930;13.334;2023-04-25T10:40:38;8.20;;;5.80;;
27632;SDS011;15046;50.930;13.334;2023-04-25T10:46:18;10.52;;;6.50;;
27632;SDS011;15046;50.930;13.334;2023-04-25T10:48:53;13.00;;;7.07;;
27632;SDS011;15046;50.930;13.334;2023-04-25T10:51:24;13.35;;;7.18;;
27632;SDS011;15046;50.930;13.334;2023-04-25T10:56:27;13.50;;;8.07;;
27632;SDS011;15046;50.930;13.334;2023-04-25T10:59:16;14.75;;;8.30;;
27632;SDS011;15046;50.930;13.334;2023-04-25T11:01:46;16.75;;;11.90;;
27632;SDS011;15046;50.930;13.334;2023-04-25T11:04:49;18.48;;;10.90;;
27632;SDS011;15046;50.930;13.334;2023-04-25T11:07:13;16.63;;;11.45;;
27632;SDS011;15046;50.930;13.334;2023-04-25T11:09:48;17.17;;;12.10;;
27632;SDS011;15046;50.930;13.334;2023-04-25T11:12:15;22.95;;;12.85;;
27632;SDS011;15046;50.930;13.334;2023-04-25T11:14:42;21.23;;;11.95;;
27632;SDS011;15046;50.930;13.334;2023-04-25T11:17:07;19.27;;;12.05;;
27632;SDS011;15046;50.930;13.334;2023-04-25T11:19:33;20.50;;;11.13;;
27632;SDS011;15046;50.930;13.334;2023-04-25T11:22:00;16.52;;;9.52;;
27632;SDS011;15046;50.930;13.334;2023-04-25T11:24:28;15.63;;;9.68;;
27632;SDS011;15046;50.930;13.334;2023-04-25T11:27:03;13.30;;;7.57;;
27632;SDS011;15046;50.930;13.334;2023-04-25T11:29:31;12.02;;;5.65;;
27632;SDS011;15046;50.930;13.334;2023-04-25T11:31:58;11.30;;;5.28;;
27632;SDS011;15046;50.930;13.334;2023-04-25T11:34:26;13.43;;;5.65;;
27632;SDS011;15046;50.930;13.334;2023-04-25T11:36:55;9.70;;;4.72;;
27632;SDS011;15046;50.930;13.334;2023-04-25T11:39:21;8.30;;;4.15;;
27632;SDS011;15046;50.930;13.334;2023-04-25T11:41:49;8.00;;;3.90;;
27632;SDS011;15046;50.930;13.334;2023-04-25T11:44:16;9.90;;;4.47;;
27632;SDS011;15046;50.930;13.334;2023-04-25T11:46:43;10.18;;;4.10;;
27632;SDS011;15046;50.930;13.334;2023-04-25T11:49:09;7.80;;;3.95;;
27632;SDS011;15046;50.930;13.334;2023-04-25T11:51:46;8.77;;;3.50;;
27632;SDS011;15046;50.930;13.334;2023-04-25T11:54:13;12.60;;;4.72;;
27632;SDS011;15046;50.930;13.334;2023-04-25T11:56:49;11.65;;;3.72;;
27632;SDS011;15046;50.930;13.334;2023-04-25T11:59:15;11.50;;;4.15;;
27632;SDS011;15046;50.930;13.334;2023-04-25T12:01:48;9.05;;;3.95;;
27632;SDS011;15046;50.930;13.334;2023-04-25T12:06:42;8.13;;;3.05;;
27632;SDS011;15046;50.930;13.334;2023-04-25T12:09:10;9.45;;;3.15;;
27632;SDS011;15046;50.930;13.334;2023-04-25T12:11:46;10.70;;;3.53;;
27632;SDS011;15046;50.930;13.334;2023-04-25T12:14:23;10.45;;;3.20;;
27632;SDS011;15046;50.930;13.334;2023-04-25T12:19:21;9.57;;;3.67;;
27632;SDS011;15046;50.930;13.334;2023-04-25T12:21:47;10.90;;;3.58;;
27632;SDS011;15046;50.930;13.334;2023-04-25T12:24:18;9.23;;;3.20;;
27632;SDS011;15046;50.930;13.334;2023-04-25T12:26:53;9.80;;;3.47;;
27632;SDS011;15046;50.930;13.334;2023-04-25T12:29:25;9.50;;;4.10;;
27632;SDS011;15046;50.930;13.334;2023-04-25T12:31:53;8.60;;;3.63;;
27632;SDS011;15046;50.930;13.334;2023-04-25T12:34:20;6.47;;;3.40;;
27632;SDS011;15046;50.930;13.334;2023-04-25T12:36:47;10.57;;;3.42;;
27632;SDS011;15046;50.930;13.334;2023-04-25T12:41:51;12.55;;;4.63;;
27632;SDS011;15046;50.930;13.334;2023-04-25T12:44:19;11.30;;;4.13;;
27632;SDS011;15046;50.930;13.334;2023-04-25T12:46:46;9.23;;;3.90;;
27632;SDS011;15046;50.930;13.334;2023-04-25T12:49:12;12.57;;;4.15;;
27632;SDS011;15046;50.930;13.334;2023-04-25T12:51:38;16.88;;;4.07;;
27632;SDS011;15046;50.930;13.334;2023-04-25T12:54:04;13.32;;;4.72;;
27632;SDS011;15046;50.930;13.334;2023-04-25T12:56:32;10.20;;;3.80;;
27632;SDS011;15046;50.930;13.334;2023-04-25T12:58:58;9.63;;;4.57;;
27632;SDS011;15046;50.930;13.334;2023-04-25T13:01:24;15.88;;;4.20;;
27632;SDS011;15046;50.930;13.334;2023-04-25T13:03:51;11.70;;;4.32;;
27632;SDS011;15046;50.930;13.334;2023-04-25T13:06:18;13.32;;;5.13;;
27632;SDS011;15046;50.930;13.334;2023-04-25T13:08:45;10.93;;;4.53;;
27632;SDS011;15046;50.930;13.334;2023-04-25T13:11:11;12.32;;;4.97;;
27632;SDS011;15046;50.930;13.334;2023-04-25T13:13:37;9.20;;;4.97;;
27632;SDS011;15046;50.930;13.334;2023-04-25T13:16:05;11.95;;;4.75;;
27632;SDS011;15046;50.930;13.334;2023-04-25T13:18:31;14.18;;;5.32;;
27632;SDS011;15046;50.930;13.334;2023-04-25T13:20:57;15.38;;;5.03;;
27632;SDS011;15046;50.930;13.334;2023-04-25T13:23:25;14.63;;;5.40;;
27632;SDS011;15046;50.930;13.334;2023-04-25T13:25:51;15.45;;;5.45;;
27632;SDS011;15046;50.930;13.334;2023-04-25T13:28:17;19.35;;;6.15;;
27632;SDS011;15046;50.930;13.334;2023-04-25T13:30:43;14.50;;;5.90;;
27632;SDS011;15046;50.930;13.334;2023-04-25T13:33:09;20.05;;;7.70;;
27632;SDS011;15046;50.930;13.334;2023-04-25T13:35:35;15.52;;;6.40;;
27632;SDS011;15046;50.930;13.334;2023-04-25T13:38:02;17.67;;;7.05;;
27632;SDS011;15046;50.930;13.334;2023-04-25T13:40:28;11.05;;;6.00;;
27632;SDS011;15046;50.930;13.334;2023-04-25T13:42:55;12.38;;;5.88;;
27632;SDS011;15046;50.930;13.334;2023-04-25T13:45:21;15.05;;;5.90;;
27632;SDS011;15046;50.930;13.334;2023-04-25T13:47:47;14.30;;;5.68;;
27632;SDS011;15046;50.930;13.334;2023-04-25T13:50:13;13.70;;;5.55;;
27632;SDS011;15046;50.930;13.334;2023-04-25T13:52:39;19.58;;;6.88;;
27632;SDS011;15046;50.930;13.334;2023-04-25T13:55:06;12.43;;;5.63;;
27632;SDS011;15046;50.930;13.334;2023-04-25T13:57:33;13.70;;;5.63;;
27632;SDS011;15046;50.930;13.334;2023-04-25T14:00:00;15.00;;;5.53;;
27632;SDS011;15046;50.930;13.334;2023-04-25T14:02:31;19.15;;;5.32;;
27632;SDS011;15046;50.930;13.334;2023-04-25T14:04:56;18.90;;;6.00;;
27632;SDS011;15046;50.930;13.334;2023-04-25T14:07:22;12.25;;;5.72;;
27632;SDS011;15046;50.930;13.334;2023-04-25T14:09:48;18.65;;;5.82;;
27632;SDS011;15046;50.930;13.334;2023-04-25T14:12:15;19.15;;;6.00;;
27632;SDS011;15046;50.930;13.334;2023-04-25T14:14:41;14.18;;;5.65;;
27632;SDS011;15046;50.930;13.334;2023-04-25T14:17:07;12.95;;;5.97;;
27632;SDS011;15046;50.930;13.334;2023-04-25T14:19:33;11.35;;;5.25;;
27632;SDS011;15046;50.930;13.334;2023-04-25T14:21:59;14.52;;;7.18;;
27632;SDS011;15046;50.930;13.334;2023-04-25T14:24:25;16.63;;;7.30;;
27632;SDS011;15046;50.930;13.334;2023-04-25T14:26:51;19.83;;;6.50;;
27632;SDS011;15046;50.930;13.334;2023-04-25T14:29:16;17.77;;;6.57;;
27632;SDS011;15046;50.930;13.334;2023-04-25T14:31:42;15.30;;;6.30;;
27632;SDS011;15046;50.930;13.334;2023-04-25T14:34:08;23.90;;;7.35;;
27632;SDS011;15046;50.930;13.334;2023-04-25T14:36:35;19.08;;;6.72;;
27632;SDS011;15046;50.930;13.334;2023-04-25T14:39:01;13.18;;;6.60;;